Reno, Ohio
Current Conditions -  °F | °C
As of 2:53 AM on Thursday 29 Jan 2015 (Local Time) from KPKB Reporting Station
Clear Clear  
Wind Chill: 24°   Ceiling: Unl
Heat Index: 24°   Visibility: 10mi
Dew Point: 15°   Wind: 0mph
Humidity: 69%   Direction: NA
Pressure: 30.22"   Gusts: NA
Location:  39.37°N, 81.4°W
Report Text: KPKB 290753Z AUTO 00000KT 10SM CLR M04/M09 A3022 RMK AO2 SLP243 T10441094
Loading
Personal Weather Stations






























Interactive Weather Map New forecast layout! Learn more

10-Day Weather Forecast

Advertisements
Track Severe Weather on mobile